Time;durP1;ratioP1;P1;durP2;ratioP2;P2;SDS_P1;SDS_P2;PMS_P1;PMS_P2;Temp;Humidity;BMP_temperature;BMP_pressure;BME280_temperature;BME280_humidity;BME280_pressure;Samples;Min_cycle;Max_cycle;Signal;HPM_P1;HPM_P2
2023/12/06 00:00:38;;;;;;;2.30;2.20;;;4.10;99.90;;;;;;4996964;28;20072;-87
2023/12/06 00:03:04;;;;;;;2.30;2.20;;;4.20;99.90;;;;;;5003708;28;20096;-86
2023/12/06 00:05:31;;;;;;;2.40;2.30;;;4.00;99.90;;;;;;5008210;28;20719;-85
2023/12/06 00:07:57;;;;;;;2.55;2.45;;;4.20;99.90;;;;;;5009255;28;20113;-86
2023/12/06 00:10:22;;;;;;;2.33;2.22;;;4.30;99.90;;;;;;5011240;28;20283;-85
2023/12/06 00:12:48;;;;;;;2.40;2.30;;;4.30;99.90;;;;;;5001582;28;20049;-85
2023/12/06 00:15:15;;;;;;;2.40;2.30;;;4.10;99.90;;;;;;5013314;28;20068;-85
2023/12/06 00:17:41;;;;;;;2.40;2.30;;;4.00;99.90;;;;;;4999966;28;20107;-86
2023/12/06 00:20:07;;;;;;;2.40;2.30;;;4.10;99.90;;;;;;5027310;28;20124;-86
2023/12/06 00:22:33;;;;;;;2.22;2.13;;;4.00;99.90;;;;;;5005922;28;20071;-86
2023/12/06 00:24:59;;;;;;;2.33;2.22;;;4.20;99.90;;;;;;5011950;28;20049;-86
2023/12/06 00:27:24;;;;;;;2.38;2.28;;;4.10;99.90;;;;;;5000002;28;20115;-87
2023/12/06 00:29:50;;;;;;;2.47;2.38;;;4.20;99.90;;;;;;5012188;28;20049;-86
2023/12/06 00:32:16;;;;;;;2.30;2.20;;;4.00;99.90;;;;;;5011896;28;20422;-87
2023/12/06 00:34:42;;;;;;;2.53;2.42;;;4.00;99.90;;;;;;4996840;28;20053;-86
2023/12/06 00:37:07;;;;;;;2.30;2.20;;;4.00;99.90;;;;;;5004705;28;20048;-87
2023/12/06 00:39:33;;;;;;;2.50;2.40;;;4.10;99.90;;;;;;4994913;28;20514;-87
2023/12/06 00:41:59;;;;;;;2.28;2.17;;;4.10;99.90;;;;;;5010400;28;20057;-86
2023/12/06 00:44:25;;;;;;;2.30;2.20;;;3.90;99.90;;;;;;4993951;28;20711;-86
2023/12/06 00:46:51;;;;;;;2.38;2.28;;;4.00;99.90;;;;;;5013646;28;20053;-86
2023/12/06 00:49:19;;;;;;;5.90;5.60;;;4.10;99.90;;;;;;5013160;28;20037;-87
2023/12/06 00:51:45;;;;;;;2.20;2.10;;;4.00;99.90;;;;;;5001581;28;20046;-88
2023/12/06 00:54:11;;;;;;;2.20;2.10;;;4.00;99.90;;;;;;5001590;28;20049;-87
2023/12/06 00:56:37;;;;;;;2.30;2.20;;;4.00;99.90;;;;;;5010476;28;20049;-87
2023/12/06 00:59:04;;;;;;;2.15;2.05;;;4.00;99.90;;;;;;5011951;28;20310;-89
2023/12/06 01:01:30;;;;;;;2.20;2.10;;;4.20;99.90;;;;;;4999200;28;20131;-87
2023/12/06 01:03:57;;;;;;;2.30;2.20;;;4.10;99.90;;;;;;5008011;28;20069;-87
2023/12/06 01:06:23;;;;;;;2.30;2.20;;;4.10;99.90;;;;;;4992928;28;20049;-86
2023/12/06 01:08:49;;;;;;;2.30;2.20;;;4.20;99.90;;;;;;5027398;28;20076;-86
2023/12/06 01:11:15;;;;;;;2.20;2.10;;;4.10;99.90;;;;;;4988921;28;20602;-86
2023/12/06 01:13:40;;;;;;;2.58;2.47;;;4.10;99.90;;;;;;5011964;28;20513;-86
2023/12/06 01:16:07;;;;;;;2.30;2.20;;;4.20;99.90;;;;;;5014097;28;20046;-88
2023/12/06 01:18:33;;;;;;;2.40;2.30;;;4.20;99.90;;;;;;5003143;28;20060;-87
2023/12/06 01:20:59;;;;;;;2.53;2.42;;;4.20;99.90;;;;;;5026620;28;20067;-86
2023/12/06 01:23:25;;;;;;;2.60;2.50;;;4.10;99.90;;;;;;5007033;28;20144;-86
2023/12/06 01:25:50;;;;;;;2.50;2.40;;;4.00;99.90;;;;;;5026276;28;20129;-86
2023/12/06 01:28:16;;;;;;;2.50;2.40;;;4.10;99.90;;;;;;5023063;28;20069;-86
2023/12/06 01:30:42;;;;;;;2.30;2.20;;;4.10;99.90;;;;;;4998289;28;20049;-86
2023/12/06 01:33:07;;;;;;;2.40;2.30;;;4.10;99.90;;;;;;5009717;28;20057;-86
2023/12/06 01:35:33;;;;;;;2.50;2.40;;;4.00;99.90;;;;;;5021566;28;20128;-87
2023/12/06 01:37:59;;;;;;;2.20;2.10;;;4.10;99.90;;;;;;5024107;28;20049;-87
2023/12/06 01:40:25;;;;;;;2.38;2.28;;;4.20;99.90;;;;;;5007885;28;20730;-88
2023/12/06 01:42:50;;;;;;;2.60;2.50;;;4.20;99.90;;;;;;5032519;28;20136;-87
2023/12/06 01:45:16;;;;;;;2.15;2.05;;;4.00;99.90;;;;;;5012445;28;20057;-87
2023/12/06 01:47:43;;;;;;;2.30;2.20;;;4.20;99.90;;;;;;5010258;28;20049;-86
2023/12/06 01:50:11;;;;;;;2.20;2.10;;;4.10;99.90;;;;;;5014069;28;20076;-87
2023/12/06 01:52:37;;;;;;;2.28;2.17;;;4.20;99.90;;;;;;5008595;28;20045;-86
2023/12/06 01:55:03;;;;;;;2.30;2.20;;;4.00;99.90;;;;;;5012172;28;20053;-86
2023/12/06 01:57:30;;;;;;;2.20;2.10;;;4.30;99.90;;;;;;4997384;28;20160;-87
2023/12/06 01:59:57;;;;;;;2.30;2.20;;;4.10;99.90;;;;;;4994784;28;20148;-87
2023/12/06 02:02:24;;;;;;;2.20;2.10;;;4.20;99.90;;;;;;4993262;28;20041;-86
2023/12/06 02:04:50;;;;;;;2.13;2.03;;;4.20;99.90;;;;;;5012116;28;20046;-85
2023/12/06 02:07:16;;;;;;;2.20;2.10;;;4.10;99.90;;;;;;5014746;28;20056;-86
2023/12/06 02:09:42;;;;;;;2.40;2.30;;;4.00;99.90;;;;;;5015425;28;20193;-86
2023/12/06 02:12:07;;;;;;;2.70;2.50;;;4.30;99.90;;;;;;5011596;28;20056;-86
2023/12/06 02:14:35;;;;;;;2.28;2.17;;;4.20;99.90;;;;;;4997057;28;20069;-87
2023/12/06 02:17:06;;;;;;;2.20;2.10;;;4.10;99.90;;;;;;5011954;28;20056;-85
2023/12/06 02:19:32;;;;;;;2.30;2.20;;;4.10;99.90;;;;;;5012740;28;20033;-86
2023/12/06 02:21:58;;;;;;;2.20;2.10;;;4.40;99.90;;;;;;5000524;28;20056;-87
2023/12/06 02:24:28;;;;;;;2.20;2.10;;;4.20;99.90;;;;;;4993916;28;20052;-85
2023/12/06 02:26:54;;;;;;;2.20;2.10;;;4.30;99.90;;;;;;5009462;28;20045;-85
2023/12/06 02:29:23;;;;;;;2.30;2.20;;;4.40;99.90;;;;;;5013147;28;20545;-86
2023/12/06 02:31:48;;;;;;;2.30;2.20;;;4.40;99.90;;;;;;5009259;28;20120;-86
2023/12/06 02:34:19;;;;;;;2.20;2.10;;;4.30;99.90;;;;;;5013259;28;20179;-88
2023/12/06 02:36:49;;;;;;;2.30;2.20;;;4.20;99.90;;;;;;5011369;28;20053;-87
2023/12/06 02:39:16;;;;;;;2.30;2.20;;;4.20;99.90;;;;;;5011667;28;20396;-86
2023/12/06 02:41:41;;;;;;;2.25;2.15;;;4.50;99.90;;;;;;5005099;28;20041;-86
2023/12/06 02:44:07;;;;;;;2.33;2.22;;;4.40;99.90;;;;;;4986932;28;20038;-88
2023/12/06 02:46:35;;;;;;;2.30;2.20;;;4.30;99.90;;;;;;5011419;28;20400;-87
2023/12/06 02:49:01;;;;;;;2.30;2.20;;;4.60;99.90;;;;;;5014193;28;20053;-87
2023/12/06 02:51:27;;;;;;;2.22;2.13;;;4.60;99.90;;;;;;5013094;28;20045;-89
2023/12/06 02:53:52;;;;;;;2.25;2.15;;;4.60;99.90;;;;;;5004566;28;20037;-88
2023/12/06 02:56:18;;;;;;;2.38;2.28;;;4.20;99.90;;;;;;5004274;28;20510;-87
2023/12/06 02:58:44;;;;;;;2.20;2.10;;;4.60;99.90;;;;;;5015245;28;20133;-88
2023/12/06 03:01:09;;;;;;;2.30;2.20;;;4.20;99.90;;;;;;5003179;28;20060;-87
2023/12/06 03:03:35;;;;;;;2.22;2.13;;;4.60;99.90;;;;;;5014587;28;20041;-87
2023/12/06 03:06:01;;;;;;;2.28;2.17;;;4.30;99.90;;;;;;5012966;28;20053;-88
2023/12/06 03:08:27;;;;;;;2.38;2.28;;;4.50;99.90;;;;;;5016902;28;20542;-87
2023/12/06 03:10:52;;;;;;;2.20;2.10;;;4.20;99.90;;;;;;5015626;28;20150;-87
2023/12/06 03:13:18;;;;;;;2.10;2.00;;;4.50;99.90;;;;;;4996845;28;20063;-87
2023/12/06 03:15:44;;;;;;;2.13;2.03;;;4.30;99.90;;;;;;5001090;28;20056;-88
2023/12/06 03:18:10;;;;;;;2.17;2.08;;;4.50;99.90;;;;;;5015089;28;20091;-88
2023/12/06 03:20:36;;;;;;;2.13;2.03;;;4.60;99.90;;;;;;5002299;28;20095;-89
2023/12/06 03:23:01;;;;;;;2.25;2.15;;;4.20;99.90;;;;;;5014754;28;20468;-88
2023/12/06 03:25:27;;;;;;;2.20;2.10;;;4.30;99.90;;;;;;4998946;28;20051;-88
2023/12/06 03:27:54;;;;;;;2.25;2.15;;;4.50;99.90;;;;;;5016613;28;20037;-88
2023/12/06 03:30:19;;;;;;;2.25;2.15;;;4.20;99.90;;;;;;5002849;28;20556;-88
2023/12/06 03:32:45;;;;;;;2.35;2.25;;;4.30;99.90;;;;;;4997686;28;20057;-90
2023/12/06 03:35:11;;;;;;;2.20;2.10;;;4.60;99.90;;;;;;5015640;28;20041;-89
2023/12/06 03:37:37;;;;;;;2.20;2.10;;;4.40;99.90;;;;;;4999849;28;20052;-89
2023/12/06 03:40:03;;;;;;;2.33;2.22;;;4.40;99.90;;;;;;5011044;28;20060;-89
2023/12/06 03:42:28;;;;;;;2.22;2.13;;;4.60;99.90;;;;;;5012863;28;20046;-89
2023/12/06 03:44:54;;;;;;;2.20;2.10;;;4.20;99.90;;;;;;5012825;28;20390;-87
2023/12/06 03:47:20;;;;;;;2.33;2.22;;;4.50;99.90;;;;;;4995047;28;20046;-89
2023/12/06 03:49:45;;;;;;;2.20;2.10;;;4.60;99.90;;;;;;5007008;28;20045;-88
2023/12/06 03:52:11;;;;;;;2.33;2.22;;;4.10;99.90;;;;;;4997529;28;20160;-87
2023/12/06 03:54:37;;;;;;;2.30;2.20;;;4.40;99.90;;;;;;5017577;28;20055;-87
2023/12/06 03:57:03;;;;;;;2.28;2.17;;;4.30;99.90;;;;;;5018174;28;20041;-89
2023/12/06 03:59:28;;;;;;;2.28;2.17;;;4.30;99.90;;;;;;4996006;28;20491;-89
2023/12/06 04:01:54;;;;;;;2.65;2.50;;;4.20;99.90;;;;;;5016187;28;20144;-89
2023/12/06 04:04:20;;;;;;;2.03;1.92;;;4.20;99.90;;;;;;5014982;28;20045;-88
2023/12/06 04:06:45;;;;;;;2.45;2.35;;;4.20;99.90;;;;;;5004030;28;20893;-89
2023/12/06 04:09:11;;;;;;;2.50;2.40;;;4.10;99.90;;;;;;5007819;28;20049;-89
2023/12/06 04:11:37;;;;;;;2.60;2.50;;;4.50;99.90;;;;;;4983241;28;20045;-87
2023/12/06 04:14:03;;;;;;;2.28;2.17;;;4.20;99.90;;;;;;5011810;28;20081;-89
2023/12/06 04:16:32;;;;;;;2.35;2.25;;;4.60;99.90;;;;;;5012899;28;20038;-89
2023/12/06 04:18:57;;;;;;;2.25;2.15;;;4.50;99.90;;;;;;5013398;28;20081;-89
2023/12/06 04:21:24;;;;;;;2.28;2.17;;;4.50;99.90;;;;;;5016475;28;20068;-89
2023/12/06 04:23:50;;;;;;;2.28;2.17;;;4.10;99.90;;;;;;5010886;28;20107;-88
2023/12/06 04:26:16;;;;;;;2.10;2.00;;;4.50;99.90;;;;;;5015272;28;20041;-88
2023/12/06 04:28:41;;;;;;;2.20;2.10;;;4.40;99.90;;;;;;4996227;28;20053;-88
2023/12/06 04:31:07;;;;;;;2.10;2.00;;;4.40;99.90;;;;;;5014907;28;20041;-89
2023/12/06 04:33:33;;;;;;;2.22;2.13;;;4.20;99.90;;;;;;5012060;28;20483;-88
2023/12/06 04:35:59;;;;;;;2.17;2.08;;;4.30;99.90;;;;;;5013091;28;20041;-88
2023/12/06 04:38:24;;;;;;;2.33;2.22;;;4.40;99.90;;;;;;4988731;28;20046;-87
2023/12/06 04:40:50;;;;;;;2.20;2.10;;;4.10;99.90;;;;;;5012823;28;20123;-88
2023/12/06 04:43:16;;;;;;;2.28;2.17;;;4.30;99.90;;;;;;5003663;28;20045;-87
2023/12/06 04:45:43;;;;;;;2.22;2.13;;;4.40;99.90;;;;;;5008928;28;20517;-87
2023/12/06 04:48:08;;;;;;;2.22;2.13;;;4.40;99.90;;;;;;5007565;28;20053;-87
2023/12/06 04:50:34;;;;;;;2.20;2.10;;;4.50;99.90;;;;;;4983693;28;20052;-87
2023/12/06 04:53:00;;;;;;;2.22;2.13;;;4.40;99.90;;;;;;5005696;28;20050;-87
2023/12/06 04:55:26;;;;;;;2.28;2.17;;;4.30;99.90;;;;;;5010976;28;20047;-87
2023/12/06 04:57:51;;;;;;;2.25;2.15;;;4.10;99.90;;;;;;5008702;28;20041;-87
2023/12/06 05:00:21;;;;;;;2.20;2.10;;;4.10;99.90;;;;;;5004691;28;20654;-87
2023/12/06 05:02:47;;;;;;;2.17;2.08;;;4.20;99.90;;;;;;5000210;28;20045;-87
2023/12/06 05:05:13;;;;;;;2.20;2.10;;;4.60;99.90;;;;;;5015557;28;20055;-87
2023/12/06 05:07:39;;;;;;;2.13;2.03;;;4.50;99.90;;;;;;5009825;28;20053;-87
2023/12/06 05:10:05;;;;;;;2.28;2.17;;;4.40;99.90;;;;;;4991558;28;20069;-87
2023/12/06 05:12:31;;;;;;;2.25;2.15;;;4.10;99.90;;;;;;4991762;28;20551;-87
2023/12/06 05:14:56;;;;;;;2.30;2.20;;;4.50;99.90;;;;;;5009388;28;20037;-88
2023/12/06 05:17:22;;;;;;;2.30;2.17;;;4.30;99.90;;;;;;5010379;28;20033;-87
2023/12/06 05:19:48;;;;;;;5.22;4.93;;;4.70;99.90;;;;;;5009143;28;20479;-87
2023/12/06 05:22:14;;;;;;;2.25;2.15;;;4.20;99.90;;;;;;4991781;28;20052;-88
2023/12/06 05:24:40;;;;;;;2.25;2.15;;;4.60;99.90;;;;;;4996675;28;20049;-88
2023/12/06 05:27:06;;;;;;;2.20;2.10;;;4.60;99.90;;;;;;4988296;28;20128;-87
2023/12/06 05:29:32;;;;;;;2.28;2.17;;;4.10;99.90;;;;;;5016636;28;20204;-87
2023/12/06 05:31:58;;;;;;;2.35;2.25;;;4.30;99.90;;;;;;4990002;28;20072;-88
2023/12/06 05:34:23;;;;;;;2.33;2.22;;;4.60;99.90;;;;;;4990235;28;20046;-88
2023/12/06 05:36:49;;;;;;;2.10;2.00;;;4.50;99.90;;;;;;5028701;28;20094;-89
2023/12/06 05:39:15;;;;;;;2.35;2.25;;;4.10;99.90;;;;;;5011497;28;20038;-88
2023/12/06 05:41:41;;;;;;;2.40;2.30;;;4.70;99.90;;;;;;4990288;28;20159;-88
2023/12/06 05:44:06;;;;;;;2.20;2.10;;;4.10;99.90;;;;;;5006965;28;20037;-88
2023/12/06 05:46:32;;;;;;;2.17;2.08;;;4.50;99.90;;;;;;5007549;28;20735;-88
2023/12/06 05:48:58;;;;;;;2.10;2.00;;;4.60;99.90;;;;;;4995611;28;20164;-89
2023/12/06 05:51:24;;;;;;;2.08;1.98;;;4.30;99.90;;;;;;4996339;28;20494;-88
2023/12/06 05:53:50;;;;;;;2.20;2.10;;;4.80;99.90;;;;;;4989325;28;20064;-87
2023/12/06 05:56:16;;;;;;;2.20;2.10;;;4.70;99.90;;;;;;4996951;28;20440;-88
2023/12/06 05:58:42;;;;;;;2.45;2.35;;;4.20;99.90;;;;;;5010499;28;20048;-88
2023/12/06 06:01:08;;;;;;;2.33;2.22;;;4.70;99.90;;;;;;4977689;28;20050;-88
2023/12/06 06:03:34;;;;;;;2.30;2.20;;;4.50;99.90;;;;;;5001969;28;20056;-87
2023/12/06 06:06:07;;;;;;;2.25;2.15;;;4.40;99.90;;;;;;5004898;28;20049;-88
2023/12/06 06:08:34;;;;;;;2.25;2.15;;;4.40;99.90;;;;;;4998884;28;20458;-88
2023/12/06 06:11:04;;;;;;;2.25;2.15;;;4.60;99.90;;;;;;5002380;28;20110;-87
2023/12/06 06:13:30;;;;;;;2.17;2.08;;;4.80;99.90;;;;;;5012190;28;20690;-86
2023/12/06 06:15:56;;;;;;;2.30;2.20;;;4.80;99.90;;;;;;5004807;28;20086;-86
2023/12/06 06:18:22;;;;;;;2.20;2.10;;;4.80;99.90;;;;;;5004078;28;20053;-87
2023/12/06 06:20:48;;;;;;;2.22;2.13;;;4.30;99.90;;;;;;5011075;28;20690;-87
2023/12/06 06:23:14;;;;;;;2.25;2.15;;;4.20;99.90;;;;;;5013980;28;20088;-88
2023/12/06 06:25:39;;;;;;;2.10;2.00;;;4.30;99.90;;;;;;5001694;28;20142;-88
2023/12/06 06:28:05;;;;;;;2.13;2.03;;;4.30;99.90;;;;;;5005400;28;20650;-87
2023/12/06 06:30:31;;;;;;;2.33;2.22;;;4.40;99.90;;;;;;5011733;28;20116;-87
2023/12/06 06:32:57;;;;;;;2.33;2.22;;;4.20;99.90;;;;;;5005173;28;20410;-87
2023/12/06 06:35:23;;;;;;;2.22;2.13;;;4.60;99.90;;;;;;4996436;28;20041;-88
2023/12/06 06:37:49;;;;;;;2.42;2.33;;;4.30;99.90;;;;;;5022096;28;20188;-88
2023/12/06 06:40:15;;;;;;;2.38;2.28;;;4.50;99.90;;;;;;5013967;28;20041;-87
2023/12/06 06:42:41;;;;;;;2.20;2.10;;;4.40;99.90;;;;;;4990233;28;20049;-88
2023/12/06 06:45:10;;;;;;;2.13;2.03;;;4.60;99.90;;;;;;4987888;28;20054;-86
2023/12/06 06:47:36;;;;;;;2.22;2.13;;;4.70;99.90;;;;;;4996815;28;20050;-87
2023/12/06 06:50:04;;;;;;;2.28;2.17;;;4.70;99.90;;;;;;5005834;28;20042;-87
2023/12/06 06:52:34;;;;;;;2.13;2.03;;;4.50;99.90;;;;;;5019846;28;20052;-87
2023/12/06 06:55:00;;;;;;;2.10;2.00;;;5.00;99.90;;;;;;5012148;28;20099;-87
2023/12/06 06:57:26;;;;;;;2.13;2.03;;;4.40;99.90;;;;;;5014792;28;20099;-88
2023/12/06 06:59:52;;;;;;;2.30;2.20;;;4.60;99.90;;;;;;5030622;28;20045;-88
2023/12/06 07:02:18;;;;;;;2.22;2.13;;;4.70;99.90;;;;;;5019098;28;20149;-88
2023/12/06 07:04:44;;;;;;;2.17;2.08;;;4.40;99.90;;;;;;5006469;28;20072;-87
2023/12/06 07:07:09;;;;;;;2.20;2.10;;;5.00;99.90;;;;;;5008412;28;20041;-88
2023/12/06 07:09:36;;;;;;;2.05;1.95;;;5.00;99.90;;;;;;5009551;28;20049;-88
2023/12/06 07:12:03;;;;;;;2.10;2.00;;;4.50;99.90;;;;;;5003094;28;20041;-87
2023/12/06 07:14:29;;;;;;;2.05;1.95;;;4.50;99.90;;;;;;4999046;28;20045;-88
2023/12/06 07:16:56;;;;;;;2.15;2.05;;;5.00;99.90;;;;;;5013443;28;20112;-87
2023/12/06 07:19:23;;;;;;;2.05;1.95;;;4.80;99.90;;;;;;5018018;28;20505;-88
2023/12/06 07:21:49;;;;;;;2.05;1.95;;;4.60;99.90;;;;;;4995302;28;20134;-88
2023/12/06 07:24:14;;;;;;;2.20;2.10;;;4.90;99.90;;;;;;5003281;28;20068;-88
2023/12/06 07:26:42;;;;;;;2.13;2.03;;;4.50;99.90;;;;;;5017523;28;20576;-88
2023/12/06 07:29:08;;;;;;;2.15;2.05;;;4.60;99.90;;;;;;5017807;28;20072;-88
2023/12/06 07:31:34;;;;;;;2.20;2.10;;;4.60;99.90;;;;;;4988121;28;20128;-88
2023/12/06 07:34:00;;;;;;;2.17;2.08;;;4.90;99.90;;;;;;5003710;28;20112;-87
2023/12/06 07:36:25;;;;;;;2.13;2.03;;;5.20;99.90;;;;;;5003615;28;20561;-90
2023/12/06 07:38:51;;;;;;;2.05;1.95;;;4.70;99.90;;;;;;4990417;28;20041;-89
2023/12/06 07:41:17;;;;;;;2.08;1.98;;;4.90;99.90;;;;;;4993827;28;20053;-89
2023/12/06 07:43:44;;;;;;;2.20;2.10;;;5.20;99.90;;;;;;4984364;28;20902;-87
2023/12/06 07:46:10;;;;;;;2.10;2.00;;;4.90;99.90;;;;;;5012223;28;20515;-87
2023/12/06 07:48:35;;;;;;;2.15;2.05;;;5.30;99.90;;;;;;5001387;28;20045;-88
2023/12/06 07:51:01;;;;;;;2.15;2.05;;;4.70;99.90;;;;;;4993516;28;20045;-88
2023/12/06 07:53:27;;;;;;;2.10;2.00;;;5.20;99.90;;;;;;5008995;28;20041;-86
2023/12/06 07:55:58;;;;;;;2.20;2.10;;;5.30;99.90;;;;;;5000842;28;20475;-88
2023/12/06 07:58:24;;;;;;;2.20;2.10;;;4.90;99.90;;;;;;5002292;28;20045;-88
2023/12/06 08:00:51;;;;;;;2.20;2.10;;;5.20;99.90;;;;;;5006016;28;20048;-89
2023/12/06 08:03:16;;;;;;;2.20;2.10;;;5.40;99.90;;;;;;5011865;28;20056;-89
2023/12/06 08:05:42;;;;;;;2.13;2.03;;;4.80;99.90;;;;;;5005973;28;20046;-88
2023/12/06 08:08:08;;;;;;;2.20;2.10;;;5.00;99.90;;;;;;5008849;28;20109;-89
2023/12/06 08:10:34;;;;;;;2.20;2.10;;;5.00;99.90;;;;;;4989934;28;20390;-88
2023/12/06 08:13:00;;;;;;;2.03;1.92;;;5.50;99.90;;;;;;4998972;28;20052;-88
2023/12/06 08:15:28;;;;;;;2.22;2.13;;;5.50;99.90;;;;;;5000110;28;20049;-88
2023/12/06 08:17:55;;;;;;;2.40;2.30;;;5.00;99.90;;;;;;5005467;28;20136;-86
2023/12/06 08:20:21;;;;;;;2.30;2.20;;;5.60;99.90;;;;;;5011191;28;20124;-88
2023/12/06 08:22:46;;;;;;;1.98;1.88;;;5.60;99.90;;;;;;5001597;28;20443;-88
2023/12/06 08:25:12;;;;;;;2.10;2.00;;;5.50;99.90;;;;;;5012992;28;20053;-88
2023/12/06 08:27:38;;;;;;;2.10;2.00;;;5.50;99.90;;;;;;5004140;28;20037;-88
2023/12/06 08:30:06;;;;;;;2.08;1.98;;;4.90;99.90;;;;;;4994273;28;20049;-88
2023/12/06 08:32:31;;;;;;;2.10;2.00;;;5.50;99.90;;;;;;5006886;28;20046;-86
2023/12/06 08:34:58;;;;;;;2.20;2.10;;;5.60;99.90;;;;;;4998736;28;20503;-88
2023/12/06 08:37:24;;;;;;;1.92;1.83;;;5.60;99.90;;;;;;5003746;28;20037;-88
2023/12/06 08:39:50;;;;;;;2.20;2.10;;;5.10;99.90;;;;;;4995131;28;20184;-88
2023/12/06 08:42:16;;;;;;;2.10;2.00;;;5.30;99.90;;;;;;5004466;28;20054;-89
2023/12/06 08:44:42;;;;;;;2.20;2.10;;;5.20;99.90;;;;;;4991759;28;20081;-88
2023/12/06 08:47:09;;;;;;;2.20;2.10;;;5.40;99.90;;;;;;4999059;28;20668;-88
2023/12/06 08:49:39;;;;;;;2.13;2.03;;;5.70;99.90;;;;;;4995249;28;21254;-88
2023/12/06 08:52:10;;;;;;;2.30;2.20;;;5.90;99.90;;;;;;4991422;28;20048;-88
2023/12/06 08:54:37;;;;;;;2.20;2.10;;;5.70;99.90;;;;;;4995346;28;20146;-88
2023/12/06 08:57:03;;;;;;;2.40;2.30;;;5.80;99.90;;;;;;4980760;28;20127;-88
2023/12/06 08:59:29;;;;;;;2.30;2.20;;;5.60;99.90;;;;;;5006882;28;20054;-89
2023/12/06 09:01:55;;;;;;;2.30;2.20;;;5.70;99.90;;;;;;4972553;28;20046;-89
2023/12/06 09:04:22;;;;;;;2.40;2.30;;;6.00;99.90;;;;;;5010995;28;20129;-89
2023/12/06 09:06:47;;;;;;;2.28;2.17;;;5.50;99.90;;;;;;5012975;28;20045;-87
2023/12/06 09:09:17;;;;;;;2.30;2.20;;;5.50;99.90;;;;;;5000737;28;20123;-85
2023/12/06 09:11:44;;;;;;;2.30;2.20;;;5.60;99.90;;;;;;4998460;28;20403;-89
2023/12/06 09:14:09;;;;;;;2.30;2.20;;;5.80;99.90;;;;;;5019021;28;20045;-87
2023/12/06 09:16:36;;;;;;;2.30;2.20;;;6.10;99.90;;;;;;5003037;28;20055;-88
2023/12/06 09:19:03;;;;;;;2.20;2.10;;;5.60;99.90;;;;;;4997270;28;20501;-89
2023/12/06 09:21:41;;;;;;;2.30;2.20;;;5.90;99.90;;;;;;5006303;28;20130;-84
2023/12/06 09:24:10;;;;;;;2.20;2.10;;;5.70;99.90;;;;;;4999737;28;20056;-88
2023/12/06 09:26:39;;;;;;;2.17;2.08;;;6.20;99.90;;;;;;4998801;28;20041;-87
2023/12/06 09:29:06;;;;;;;2.20;2.10;;;6.00;99.90;;;;;;5006238;28;20050;-89
2023/12/06 09:31:33;;;;;;;2.20;2.10;;;6.00;99.90;;;;;;4981890;28;20057;-89
2023/12/06 09:33:59;;;;;;;2.03;1.92;;;6.10;99.90;;;;;;4992083;28;20057;-88
2023/12/06 09:36:27;;;;;;;2.17;2.08;;;6.00;99.90;;;;;;5022740;28;20068;-89
2023/12/06 09:38:56;;;;;;;2.13;2.03;;;6.30;99.90;;;;;;5008895;28;20055;-90
2023/12/06 09:41:29;;;;;;;2.20;2.10;;;6.30;99.90;;;;;;4993848;28;20046;-89
2023/12/06 09:43:55;;;;;;;2.35;2.25;;;5.90;99.90;;;;;;5014898;28;20042;-90
2023/12/06 09:46:21;;;;;;;2.10;2.00;;;6.20;99.90;;;;;;5026609;28;20057;-90
2023/12/06 09:48:48;;;;;;;2.25;2.15;;;5.90;99.90;;;;;;5002705;28;20074;-89
2023/12/06 09:51:15;;;;;;;2.30;2.20;;;6.10;99.90;;;;;;4998269;28;20491;-89
2023/12/06 09:53:41;;;;;;;1.98;1.88;;;6.00;99.90;;;;;;5014469;28;20050;-89
2023/12/06 09:56:09;;;;;;;1.90;1.80;;;6.00;99.90;;;;;;5010018;28;20056;-89
2023/12/06 09:58:35;;;;;;;2.03;1.92;;;5.90;99.90;;;;;;4993800;28;20050;-89
2023/12/06 10:01:02;;;;;;;2.20;2.10;;;6.20;99.90;;;;;;5028156;28;20065;-88
2023/12/06 10:03:28;;;;;;;2.20;2.10;;;6.20;99.90;;;;;;4989107;28;20042;-89
2023/12/06 10:05:58;;;;;;;2.25;2.15;;;6.30;99.90;;;;;;4988528;28;20048;-90
2023/12/06 10:08:24;;;;;;;2.10;2.00;;;6.00;99.90;;;;;;5014968;28;20049;-90
2023/12/06 10:11:04;;;;;;;2.20;2.10;;;6.50;99.90;;;;;;5014130;28;20052;-90
2023/12/06 10:13:40;;;;;;;1.90;1.80;;;6.00;99.90;;;;;;4989760;28;20045;-89
2023/12/06 10:16:17;;;;;;;2.20;2.10;;;6.30;99.90;;;;;;4985395;28;20050;-90
2023/12/06 10:18:48;;;;;;;2.30;2.20;;;6.40;99.90;;;;;;4998462;28;20038;-88
2023/12/06 10:21:14;;;;;;;2.10;2.00;;;6.60;99.90;;;;;;5014567;28;20053;-91
2023/12/06 10:23:41;;;;;;;2.20;2.10;;;6.20;99.90;;;;;;4994585;28;20050;-91
2023/12/06 10:26:16;;;;;;;2.22;2.13;;;6.20;99.90;;;;;;5011667;28;20129;-90
2023/12/06 10:28:42;;;;;;;2.15;2.05;;;6.20;99.90;;;;;;5012789;28;20063;-89
2023/12/06 10:31:08;;;;;;;2.30;2.20;;;6.30;99.90;;;;;;4991965;28;20380;-88
2023/12/06 10:33:34;;;;;;;2.20;2.10;;;6.50;99.90;;;;;;5008393;28;20518;-86
2023/12/06 10:36:02;;;;;;;2.20;2.10;;;6.30;99.90;;;;;;5002275;28;20073;-89
2023/12/06 10:38:28;;;;;;;2.00;1.90;;;6.50;99.90;;;;;;5005460;28;20868;-88
2023/12/06 10:41:03;;;;;;;1.80;1.70;;;6.40;99.90;;;;;;5008330;28;20129;-85
2023/12/06 10:43:30;;;;;;;2.17;2.08;;;6.70;99.90;;;;;;4998589;28;20038;-89
2023/12/06 10:45:56;;;;;;;1.85;1.75;;;6.60;99.90;;;;;;5013436;28;20462;-89
2023/12/06 10:48:23;;;;;;;2.30;2.20;;;6.50;99.90;;;;;;5012260;28;20053;-88
2023/12/06 10:50:50;;;;;;;2.10;2.00;;;6.40;99.90;;;;;;4993571;28;20128;-87
2023/12/06 10:53:17;;;;;;;2.10;2.00;;;6.50;99.90;;;;;;4992992;28;20049;-87
2023/12/06 10:55:43;;;;;;;2.30;2.20;;;6.70;99.90;;;;;;4991399;28;20078;-87
2023/12/06 10:58:09;;;;;;;2.25;2.15;;;6.80;99.90;;;;;;5008441;28;20142;-86
2023/12/06 11:00:35;;;;;;;2.40;2.30;;;6.50;99.90;;;;;;5026510;28;20443;-88
2023/12/06 11:03:02;;;;;;;2.45;2.35;;;6.60;99.90;;;;;;5010559;28;20049;-90
2023/12/06 11:05:38;;;;;;;2.40;2.30;;;6.50;99.90;;;;;;5025534;28;20100;-89
2023/12/06 11:08:09;;;;;;;2.42;2.33;;;6.90;99.90;;;;;;5002297;28;20045;-87
2023/12/06 11:10:57;;;;;;;2.25;2.15;;;6.70;99.90;;;;;;4996208;28;20353;-89
2023/12/06 11:13:43;;;;;;;2.15;2.05;;;6.90;99.90;;;;;;5008189;28;20042;-88
2023/12/06 11:16:27;;;;;;;1.60;1.50;;;6.70;99.90;;;;;;4997476;28;20046;-88
2023/12/06 11:18:53;;;;;;;;;;;6.70;99.90;;;;;;5010507;28;20076;-89
2023/12/06 11:21:19;;;;;;;2.17;2.08;;;7.00;99.90;;;;;;4996362;28;19964;-88
2023/12/06 11:23:48;;;;;;;2.17;2.08;;;6.90;99.90;;;;;;5026761;28;20068;-89
2023/12/06 11:26:14;;;;;;;2.08;1.98;;;6.70;99.90;;;;;;5003938;28;20052;-87
2023/12/06 11:28:40;;;;;;;2.17;2.08;;;7.10;99.90;;;;;;5011375;28;20038;-90
2023/12/06 11:31:07;;;;;;;2.38;2.28;;;6.80;99.90;;;;;;4995752;28;20041;-89
2023/12/06 11:33:37;;;;;;;1.90;1.80;;;7.10;99.90;;;;;;5010894;28;20052;-88
2023/12/06 11:36:03;;;;;;;1.70;1.60;;;6.90;99.90;;;;;;4989361;28;20042;-90
2023/12/06 11:38:36;;;;;;;2.10;2.00;;;6.90;99.90;;;;;;5011780;28;20049;-88
2023/12/06 11:41:06;;;;;;;2.20;2.10;;;7.10;99.90;;;;;;5012107;28;20060;-89
2023/12/06 11:43:34;;;;;;;1.90;1.80;;;7.20;99.90;;;;;;5004170;28;20045;-90
2023/12/06 11:46:10;;;;;;;1.88;1.77;;;7.00;99.90;;;;;;4991516;28;20427;-89
2023/12/06 11:48:37;;;;;;;1.90;1.80;;;7.10;99.90;;;;;;5012929;28;20050;-88
2023/12/06 11:51:04;;;;;;;2.03;1.92;;;7.00;99.90;;;;;;5012315;28;20045;-93
2023/12/06 11:53:31;;;;;;;2.10;2.00;;;7.10;99.90;;;;;;5010942;28;20505;-91
2023/12/06 11:55:57;;;;;;;1.63;1.52;;;7.10;99.90;;;;;;4999080;28;20069;-93
2023/12/06 11:58:31;;;;;;;1.90;1.80;;;7.20;99.90;;;;;;4997646;28;20038;-93
2023/12/06 12:00:59;;;;;;;2.10;2.00;;;7.10;99.90;;;;;;4998190;28;20116;-94
2023/12/06 12:03:26;;;;;;;1.73;1.63;;;7.20;99.90;;;;;;5014215;28;20068;-91
2023/12/06 12:05:56;;;;;;;1.70;1.60;;;7.10;99.90;;;;;;4988917;28;20114;-92
2023/12/06 12:08:22;;;;;;;1.42;1.38;;;7.10;99.90;;;;;;5010326;28;20050;-94
2023/12/06 12:10:49;;;;;;;2.00;1.90;;;7.30;99.90;;;;;;5014341;28;20053;-93
2023/12/06 12:13:20;;;;;;;2.00;1.90;;;7.20;99.90;;;;;;5013716;28;20037;-92
2023/12/06 12:15:52;;;;;;;1.67;1.58;;;7.10;99.90;;;;;;5030242;28;20045;-90
2023/12/06 12:18:19;;;;;;;1.65;1.55;;;7.20;99.90;;;;;;5011335;28;20049;-90
2023/12/06 12:20:45;;;;;;;1.90;1.80;;;7.30;99.90;;;;;;4994521;28;20049;-90
2023/12/06 12:23:11;;;;;;;1.90;1.80;;;7.20;99.90;;;;;;4996703;28;20049;-94
2023/12/06 12:25:47;;;;;;;2.00;1.90;;;7.30;99.90;;;;;;4980451;28;20041;-92
2023/12/06 12:28:17;;;;;;;1.58;1.48;;;7.30;99.90;;;;;;5010202;28;20291;-91
2023/12/06 12:30:46;;;;;;;2.00;1.90;;;7.30;99.90;;;;;;4996249;28;20037;-91
2023/12/06 12:33:16;;;;;;;2.00;1.90;;;7.30;99.90;;;;;;4990367;28;21087;-91
2023/12/06 12:35:42;;;;;;;2.00;1.90;;;7.20;99.90;;;;;;4989964;28;20049;-91
2023/12/06 12:38:09;;;;;;;1.85;1.75;;;7.30;99.90;;;;;;4990002;28;20038;-91
2023/12/06 12:40:35;;;;;;;2.10;2.00;;;7.30;99.90;;;;;;5013062;28;20477;-92
2023/12/06 12:43:01;;;;;;;1.80;1.70;;;7.30;99.90;;;;;;4994271;28;20041;-92
2023/12/06 12:45:27;;;;;;;2.00;1.90;;;7.30;99.90;;;;;;5008633;28;20049;-91
2023/12/06 12:47:53;;;;;;;2.00;1.90;;;7.20;99.90;;;;;;5016054;28;20044;-92
2023/12/06 12:50:21;;;;;;;2.05;1.95;;;7.30;99.90;;;;;;4998754;28;20050;-91
2023/12/06 12:52:50;;;;;;;2.20;2.10;;;7.30;99.90;;;;;;4979055;28;20236;-91
2023/12/06 12:55:19;;;;;;;2.22;2.13;;;7.20;99.90;;;;;;5009212;28;20121;-88